Station: Essendon Airport  

  Atmospheric Gas Attenuation - ITU Rec 676-11   ----------------- dB/100km -----------------
Date Time Temp RH % AH g/m3 Dew Point Wind Direction Speed kph Gust kph Barometer mB Rainfall Since 9am 24GHz 47GHz 76GHz 122GHz 134GHz 241GHz
08/05 12:40 15.6 65 8.64 9.1 22 26 1023.2 0 19.6 25.8 39.5 103.5 97.5 335.4
08/05 12:30 16.2 64 8.83 9.4 24 30 1023.4 0 20.0 25.9 40.0 104.8 99.2 341.5
08/05 12:20 15.6 68 9.04 9.7 28 32 1023.6 0 20.4 26.5 41.1 107.8 102.7 353.8
08/05 12:10 15.8 67 9.02 9.7 26 32 1023.6 0 20.4 26.4 40.9 107.3 102.2 352.0
08/05 12:00 16.8 69 9.86 11.1 28 39 1023.8 0 22.1 27.4 43.8 115.0 112.0 386.3
08/05 11:50 15.4 74 9.72 10.8 24 28 1023.7 0 21.9 27.6 44.0 115.5 112.1 386.6
08/05 11:40 14.7 77 9.69 10.7 33 39 1023.5 0 21.9 27.8 44.2 116.2 112.7 388.5
08/05 11:30 15.8 71 9.56 10.6 28 43 1023.6 0 21.5 27.3 43.1 113.2 109.4 377.0
08/05 11:20 14.6 78 9.76 10.8 32 35 1023.5 0 22.0 28.0 44.6 117.1 113.8 392.4
08/05 11:10 13.9 84 10.07 11.2 26 30 1023.6 0 22.7 28.7 46.3 121.7 119.2 411.0
08/05 11:00 14.4 76 9.39 10.2 28 41 1023.7 0 21.2 27.4 43.2 113.3 109.1 375.8
08/05 10:50 14.6 75 9.39 10.2 28 32 1023.7 0 21.2 27.3 43.1 113.0 108.8 374.8
08/05 10:40 14.6 74 9.26 10 32 35 1023.5 0 20.9 27.1 42.5 111.6 107.0 368.6
08/05 10:30 14.5 74 9.2 9.9 32 39 1023.3 0 20.8 27.0 42.3 111.1 106.3 366.2
08/05 10:20 15 73 9.36 10.2 33 37 1023.1 0 21.1 27.1 42.7 112.1 107.8 371.3
08/05 10:10 15.3 69 9.01 9.7 26 30 1023.1 0 20.4 26.5 41.1 107.9 102.7 353.6
08/05 10:00 14.9 72 9.18 9.9 28 35 1023.1 0 20.8 26.9 42.0 110.3 105.5 363.3
08/05 09:50 14.9 72 9.18 9.9 28 30 1023 0 20.8 26.9 42.0 110.2 105.5 363.3
08/05 09:40 14.9 74 9.43 10.3 35 39 1022.8 0 21.3 27.3 43.0 112.9 108.8 375.0
08/05 09:30 14.5 76 9.45 10.3 28 35 1022.6 0 21.4 27.4 43.3 113.7 109.6 377.8
08/05 09:20 14.2 79 9.65 10.6 28 30 1022.7 0 21.8 27.9 44.3 116.4 112.8 388.9
08/05 09:10 13.8 80 9.53 10.4 20 24 1022.6 0 21.6 27.8 44.0 115.6 111.7 385.1
08/05 09:00 13.6 81 9.53 10.4 30 39 1022.7 0 21.6 27.9 44.2 115.9 112.0 386.1
08/05 08:50 13.6 82 9.65 10.6 33 37 1022.7 2 21.8 28.1 44.7 117.3 113.7 391.9
08/05 08:40 12.8 84 9.41 10.2 28 33 1022.4 2 21.4 27.9 44.1 115.7 111.5 384.1
08/05 08:30 12.5 85 9.35 10 24 32 1022.4 2 21.2 27.9 44.0 115.5 111.1 382.7
08/05 08:20 12.6 86 9.52 10.3 22 28 1022.4 2 21.6 28.1 44.7 117.3 113.3 390.5
08/05 08:10 12.7 87 9.69 10.6 24 28 1022.3 2 22.0 28.4 45.3 119.1 115.6 398.3
08/05 08:00 12.4 87 9.51 10.3 24 33 1022.1 2 21.6 28.2 44.7 117.4 113.5 390.9
08/05 07:50 12.1 87 9.33 10 26 32 1021.9 2 21.2 28.0 44.1 115.8 111.4 383.6
08/05 07:40 12.2 86 9.28 9.9 22 32 1021.8 2 21.1 27.8 43.8 115.1 110.5 380.6
08/05 07:30 12.4 86 9.4 10.1 22 35 1021.7 2 21.4 28.0 44.2 116.2 111.9 385.4
08/05 07:20 12.4 88 9.62 10.5 24 28 1021.6 2 21.8 28.3 45.2 118.6 115.0 396.2
08/05 07:10 12.3 89 9.67 10.5 26 33 1021.6 2 21.9 28.5 45.4 119.4 115.8 399.1
08/05 07:00 12.5 87 9.57 10.4 28 35 1021.4 2 21.7 28.2 44.9 117.9 114.1 393.1
08/05 06:50 12.4 87 9.51 10.3 28 37 1021.4 2 21.6 28.2 44.7 117.4 113.4 390.7
08/05 06:40 12.6 85 9.4 10.1 28 33 1021.3 2 21.4 27.9 44.1 115.8 111.6 384.3
08/05 06:30 12.6 84 9.29 10 32 46 1021.2 2 21.1 27.7 43.6 114.6 110.0 378.9
08/05 06:20 12.6 84 9.29 10 33 41 1021.1 2 21.1 27.7 43.6 114.5 110.0 378.9
08/05 06:10 12.7 84 9.35 10.1 33 39 1021 2 21.2 27.8 43.8 115.1 110.7 381.3
08/05 06:00 12.6 84 9.29 10 35 46 1021 2 21.1 27.7 43.6 114.5 110.0 378.9
08/05 05:50 12.5 84 9.24 9.9 35 39 1020.8 2 21.0 27.6 43.5 114.1 109.4 376.9
08/05 05:40 12.7 84 9.35 10.1 35 39 1020.8 2 21.2 27.8 43.8 115.0 110.7 381.2
08/05 05:30 12.8 84 9.41 10.2 30 39 1020.8 2 21.4 27.8 44.0 115.6 111.4 383.7
08/05 05:20 12.8 84 9.41 10.2 30 35 1020.8 2 21.4 27.8 44.0 115.6 111.4 383.7
08/05 05:10 12.8 84 9.41 10.2 32 39 1020.6 2 21.4 27.8 44.0 115.5 111.4 383.6
08/05 05:00 13 83 9.41 10.2 33 50 1020.5 2 21.4 27.8 43.9 115.2 111.1 382.6
08/05 04:50 13 83 9.41 10.2 26 30 1020.5 2 21.4 27.8 43.9 115.2 111.1 382.6
08/05 04:40 12.9 84 9.47 10.3 26 32 1020.5 2 21.5 27.9 44.2 116.1 112.0 386.0
08/05 04:30 12.7 85 9.46 10.2 26 33 1020.3 2 21.5 27.9 44.3 116.2 112.2 386.4
08/05 04:20 12.6 87 9.63 10.5 26 30 1020.2 2 21.8 28.2 45.0 118.3 114.7 395.2
08/05 04:10 12.6 86 9.52 10.3 32 35 1020.2 2 21.6 28.1 44.6 117.0 113.1 389.8
08/05 04:00 12.8 83 9.3 10 30 39 1020.1 2 21.1 27.6 43.5 114.3 109.8 378.1
08/05 03:50 12.8 82 9.19 9.8 24 30 1020.1 2 20.9 27.4 43.1 113.0 108.3 372.8
08/05 03:40 12.7 82 9.13 9.7 20 22 1020 2 20.8 27.4 42.9 112.5 107.6 370.4
08/05 03:30 12.7 82 9.13 9.7 24 32 1020 2 20.8 27.4 42.9 112.5 107.6 370.4
08/05 03:20 12.6 82 9.07 9.6 26 30 1020 2 20.6 27.3 42.7 112.0 106.9 368.0
08/05 03:10 12.5 82 9.02 9.5 17 20 1020 2 20.5 27.2 42.5 111.6 106.3 366.0
08/05 03:00 12.5 83 9.13 9.7 22 30 1020 2 20.8 27.4 43.0 112.8 107.9 371.3
08/05 02:50 12.5 82 9.02 9.5 20 22 1020 2 20.5 27.2 42.5 111.6 106.3 366.0
08/05 02:40 12.4 82 8.96 9.4 20 24 1020 2 20.4 27.2 42.3 111.0 105.7 363.6
08/05 02:30 12.2 82 8.85 9.2 24 32 1020 2 20.2 27.0 42.0 110.1 104.4 359.3
08/05 02:20 12.1 83 8.9 9.3 20 24 1020 2 20.3 27.2 42.2 110.8 105.2 362.2
08/05 02:10 12.1 82 8.79 9.1 24 26 1020.1 2 20.1 27.0 41.8 109.6 103.7 356.9
08/05 02:00 12 82 8.74 9 22 30 1020.2 2 20.0 26.9 41.6 109.2 103.2 355.0
08/05 01:50 12 82 8.74 9 22 24 1020.3 2 20.0 26.9 41.6 109.2 103.2 355.0
08/05 01:40 12.1 81 8.69 8.9 24 30 1020.3 2 19.9 26.8 41.4 108.5 102.4 352.2
08/05 01:30 12 81 8.63 8.8 20 28 1020.5 2 19.7 26.8 41.2 108.0 101.7 349.8
08/05 01:20 11.8 82 8.63 8.8 24 28 1020.6 2 19.7 26.8 41.3 108.3 102.0 350.8
08/05 01:10 11.8 81 8.53 8.6 20 26 1020.6 2 19.5 26.6 40.9 107.2 100.6 346.0
08/05 01:00 11.9 82 8.69 8.9 24 32 1020.7 2 19.9 26.9 41.5 108.8 102.7 353.2
08/05 00:50 11.8 82 8.63 8.8 22 24 1020.6 2 19.7 26.8 41.3 108.3 102.0 350.8
08/05 00:40 11.9 81 8.58 8.7 26 30 1020.8 2 19.6 26.7 41.0 107.6 101.2 348.0
08/05 00:30 11.8 81 8.53 8.6 24 39 1020.8 2 19.5 26.7 40.9 107.2 100.7 346.0
08/05 00:20 11.9 80 8.47 8.6 28 35 1020.9 2 19.4 26.5 40.6 106.4 99.7 342.8
08/05 00:10 11.8 80 8.42 8.5 20 24 1021 2 19.3 26.5 40.4 106.0 99.2 340.9
08/05 00:00 11.6 80 8.32 8.3 22 32 1020.9 2 19.1 26.4 40.1 105.2 98.1 337.0
07/05 23:50 11.6 80 8.32 8.3 28 32 1020.9 2 19.1 26.4 40.1 105.2 98.1 337.0
07/05 23:40 11.6 80 8.32 8.3 19 20 1021.1 2 19.1 26.4 40.1 105.2 98.1 337.0
07/05 23:30 11.6 79 8.21 8.1 24 32 1021.2 2 18.9 26.2 39.7 104.0 96.6 331.8
07/05 23:20 11.6 79 8.21 8.1 26 28 1021.5 2 18.9 26.2 39.7 104.0 96.6 331.9
07/05 23:10 11.6 78 8.11 7.9 30 35 1021.7 2 18.6 26.1 39.3 102.9 95.3 327.3
07/05 23:00 11.4 79 8.11 7.9 24 32 1021.6 2 18.6 26.1 39.4 103.2 95.5 328.1
07/05 22:50 11.4 79 8.11 7.9 28 32 1021.8 2 18.6 26.1 39.4 103.2 95.6 328.1
07/05 22:40 11.3 78 7.96 7.6 30 33 1021.9 2 18.3 25.9 38.8 101.7 93.7 321.5
07/05 22:30 11.2 78 7.91 7.5 26 33 1022 2 18.2 25.9 38.7 101.3 93.1 319.6
07/05 22:20 11.2 77 7.81 7.3 26 30 1022 2 18.0 25.7 38.3 100.2 91.8 314.9
07/05 22:10 11.1 77 7.76 7.2 24 28 1022.1 2 17.9 25.6 38.1 99.8 91.2 313.0
07/05 22:00 11.1 77 7.76 7.2 20 30 1022.1 2 17.9 25.6 38.1 99.8 91.2 313.0
07/05 21:50 11 77 7.71 7.1 22 26 1022.1 2 17.8 25.6 38.0 99.4 90.7 311.0
07/05 21:40 11 77 7.71 7.1 20 22 1022.2 2 17.8 25.6 38.0 99.4 90.7 311.0
07/05 21:30 11 77 7.71 7.1 24 32 1022.2 2 17.8 25.6 38.0 99.4 90.7 311.0
07/05 21:20 10.9 77 7.66 7 24 30 1022.1 2 17.7 25.5 37.8 99.0 90.1 309.1
07/05 21:10 11 76 7.61 6.9 26 28 1022.1 2 17.6 25.4 37.6 98.3 89.4 306.3
07/05 21:00 11 76 7.61 6.9 26 33 1022.2 2 17.6 25.4 37.6 98.3 89.4 306.4
07/05 20:50 10.9 76 7.56 6.8 26 32 1022.3 2 17.5 25.4 37.4 97.9 88.8 304.5
07/05 20:40 10.8 76 7.51 6.7 28 32 1022.3 2 17.4 25.3 37.3 97.5 88.3 302.5
07/05 20:30 10.7 78 7.66 7 28 35 1022.5 2 17.7 25.6 37.9 99.3 90.4 310.0
07/05 20:20 10.9 76 7.56 6.8 22 30 1022.8 2 17.5 25.4 37.4 98.0 88.9 304.6
07/05 20:10 11 74 7.41 6.6 17 20 1022.8 2 17.2 25.1 36.8 96.2 86.8 297.2

Last Refresh: 08-May-2026 12:10:11

Bureau of Meteorology